sensor_id;sensor_type;location;lat;lon;timestamp;P1;durP1;ratioP1;P2;durP2;ratioP2
22673;SDS011;11504;43.334;21.918;2022-08-14T00:02:49;20.0;;;19.0;;
22673;SDS011;11504;43.334;21.918;2022-08-14T00:07:28;20.0;;;19.0;;
22673;SDS011;11504;43.334;21.918;2022-08-14T00:12:06;20.0;;;20.0;;
22673;SDS011;11504;43.334;21.918;2022-08-14T00:16:44;20.0;;;20.0;;
22673;SDS011;11504;43.334;21.918;2022-08-14T00:21:22;20.0;;;20.0;;
22673;SDS011;11504;43.334;21.918;2022-08-14T00:26:00;21.0;;;20.0;;
22673;SDS011;11504;43.334;21.918;2022-08-14T00:30:38;21.0;;;20.0;;
22673;SDS011;11504;43.334;21.918;2022-08-14T00:35:18;22.0;;;21.0;;
22673;SDS011;11504;43.334;21.918;2022-08-14T00:39:57;22.0;;;21.0;;
22673;SDS011;11504;43.334;21.918;2022-08-14T00:44:36;23.0;;;22.0;;
22673;SDS011;11504;43.334;21.918;2022-08-14T00:49:13;23.0;;;22.0;;
22673;SDS011;11504;43.334;21.918;2022-08-14T00:53:50;22.0;;;22.0;;
22673;SDS011;11504;43.334;21.918;2022-08-14T00:58:27;22.0;;;22.0;;
22673;SDS011;11504;43.334;21.918;2022-08-14T01:03:05;22.0;;;21.0;;
22673;SDS011;11504;43.334;21.918;2022-08-14T01:07:43;22.0;;;21.0;;
22673;SDS011;11504;43.334;21.918;2022-08-14T01:12:22;23.0;;;22.0;;
22673;SDS011;11504;43.334;21.918;2022-08-14T01:17:04;23.0;;;22.0;;
22673;SDS011;11504;43.334;21.918;2022-08-14T01:21:42;23.0;;;22.0;;
22673;SDS011;11504;43.334;21.918;2022-08-14T01:26:22;24.0;;;23.0;;
22673;SDS011;11504;43.334;21.918;2022-08-14T01:31:08;24.0;;;23.0;;
22673;SDS011;11504;43.334;21.918;2022-08-14T01:35:54;22.0;;;22.0;;
22673;SDS011;11504;43.334;21.918;2022-08-14T01:40:35;22.0;;;22.0;;
22673;SDS011;11504;43.334;21.918;2022-08-14T01:45:12;21.0;;;20.0;;
22673;SDS011;11504;43.334;21.918;2022-08-14T01:49:50;21.0;;;20.0;;
22673;SDS011;11504;43.334;21.918;2022-08-14T01:54:28;20.0;;;18.0;;
22673;SDS011;11504;43.334;21.918;2022-08-14T01:59:08;20.0;;;18.0;;
22673;SDS011;11504;43.334;21.918;2022-08-14T02:04:08;18.0;;;17.0;;
22673;SDS011;11504;43.334;21.918;2022-08-14T02:08:46;18.0;;;17.0;;
22673;SDS011;11504;43.334;21.918;2022-08-14T02:13:24;16.0;;;14.0;;
22673;SDS011;11504;43.334;21.918;2022-08-14T02:18:00;16.0;;;14.0;;
22673;SDS011;11504;43.334;21.918;2022-08-14T02:22:38;13.0;;;12.0;;
22673;SDS011;11504;43.334;21.918;2022-08-14T02:27:14;13.0;;;12.0;;
22673;SDS011;11504;43.334;21.918;2022-08-14T02:31:53;13.0;;;12.0;;
22673;SDS011;11504;43.334;21.918;2022-08-14T02:36:36;12.0;;;11.0;;
22673;SDS011;11504;43.334;21.918;2022-08-14T02:41:16;12.0;;;11.0;;
22673;SDS011;11504;43.334;21.918;2022-08-14T02:45:53;10.0;;;10.0;;
22673;SDS011;11504;43.334;21.918;2022-08-14T02:50:30;10.0;;;10.0;;
22673;SDS011;11504;43.334;21.918;2022-08-14T02:55:08;10.0;;;10.0;;
22673;SDS011;11504;43.334;21.918;2022-08-14T02:59:46;10.0;;;10.0;;
22673;SDS011;11504;43.334;21.918;2022-08-14T03:04:28;10.0;;;9.0;;
22673;SDS011;11504;43.334;21.918;2022-08-14T03:09:09;10.0;;;9.0;;
22673;SDS011;11504;43.334;21.918;2022-08-14T03:13:50;10.0;;;9.0;;
22673;SDS011;11504;43.334;21.918;2022-08-14T03:18:29;10.0;;;9.0;;
22673;SDS011;11504;43.334;21.918;2022-08-14T03:23:07;10.0;;;9.0;;
22673;SDS011;11504;43.334;21.918;2022-08-14T03:27:44;10.0;;;9.0;;
22673;SDS011;11504;43.334;21.918;2022-08-14T03:32:21;10.0;;;10.0;;
22673;SDS011;11504;43.334;21.918;2022-08-14T03:36:57;10.0;;;10.0;;
22673;SDS011;11504;43.334;21.918;2022-08-14T03:41:35;10.0;;;10.0;;
22673;SDS011;11504;43.334;21.918;2022-08-14T03:46:13;11.0;;;10.0;;
22673;SDS011;11504;43.334;21.918;2022-08-14T03:50:52;11.0;;;10.0;;
22673;SDS011;11504;43.334;21.918;2022-08-14T03:55:29;10.0;;;10.0;;
22673;SDS011;11504;43.334;21.918;2022-08-14T04:00:10;10.0;;;10.0;;
22673;SDS011;11504;43.334;21.918;2022-08-14T04:04:51;10.0;;;10.0;;
22673;SDS011;11504;43.334;21.918;2022-08-14T04:09:28;10.0;;;10.0;;
22673;SDS011;11504;43.334;21.918;2022-08-14T04:14:05;11.0;;;10.0;;
22673;SDS011;11504;43.334;21.918;2022-08-14T04:18:47;11.0;;;10.0;;
22673;SDS011;11504;43.334;21.918;2022-08-14T04:23:34;12.0;;;11.0;;
22673;SDS011;11504;43.334;21.918;2022-08-14T04:28:13;12.0;;;11.0;;
22673;SDS011;11504;43.334;21.918;2022-08-14T04:32:50;12.0;;;10.0;;
22673;SDS011;11504;43.334;21.918;2022-08-14T04:37:27;12.0;;;10.0;;
22673;SDS011;11504;43.334;21.918;2022-08-14T04:42:05;11.0;;;10.0;;
22673;SDS011;11504;43.334;21.918;2022-08-14T04:46:42;11.0;;;10.0;;
22673;SDS011;11504;43.334;21.918;2022-08-14T04:51:21;11.0;;;10.0;;
22673;SDS011;11504;43.334;21.918;2022-08-14T04:55:58;10.0;;;10.0;;
22673;SDS011;11504;43.334;21.918;2022-08-14T05:00:35;10.0;;;10.0;;
22673;SDS011;11504;43.334;21.918;2022-08-14T05:05:12;9.0;;;9.0;;
22673;SDS011;11504;43.334;21.918;2022-08-14T05:09:49;9.0;;;9.0;;
22673;SDS011;11504;43.334;21.918;2022-08-14T05:14:26;9.0;;;9.0;;
22673;SDS011;11504;43.334;21.918;2022-08-14T05:19:03;9.0;;;9.0;;
22673;SDS011;11504;43.334;21.918;2022-08-14T05:23:39;9.0;;;9.0;;
22673;SDS011;11504;43.334;21.918;2022-08-14T05:28:20;9.0;;;9.0;;
22673;SDS011;11504;43.334;21.918;2022-08-14T05:33:07;9.0;;;9.0;;
22673;SDS011;11504;43.334;21.918;2022-08-14T05:37:44;9.0;;;9.0;;
22673;SDS011;11504;43.334;21.918;2022-08-14T05:42:21;9.0;;;9.0;;
22673;SDS011;11504;43.334;21.918;2022-08-14T05:46:58;9.0;;;9.0;;
22673;SDS011;11504;43.334;21.918;2022-08-14T05:51:35;9.0;;;9.0;;
22673;SDS011;11504;43.334;21.918;2022-08-14T05:56:12;9.0;;;9.0;;
22673;SDS011;11504;43.334;21.918;2022-08-14T06:00:50;9.0;;;9.0;;
22673;SDS011;11504;43.334;21.918;2022-08-14T06:05:29;9.0;;;9.0;;
22673;SDS011;11504;43.334;21.918;2022-08-14T06:10:09;9.0;;;9.0;;
22673;SDS011;11504;43.334;21.918;2022-08-14T06:14:46;9.0;;;9.0;;
22673;SDS011;11504;43.334;21.918;2022-08-14T06:19:22;9.0;;;9.0;;
22673;SDS011;11504;43.334;21.918;2022-08-14T06:23:59;9.0;;;9.0;;
22673;SDS011;11504;43.334;21.918;2022-08-14T06:28:36;9.0;;;9.0;;
22673;SDS011;11504;43.334;21.918;2022-08-14T06:33:13;10.0;;;10.0;;
22673;SDS011;11504;43.334;21.918;2022-08-14T06:37:58;10.0;;;10.0;;
22673;SDS011;11504;43.334;21.918;2022-08-14T06:42:36;10.0;;;10.0;;
22673;SDS011;11504;43.334;21.918;2022-08-14T06:47:14;10.0;;;10.0;;
22673;SDS011;11504;43.334;21.918;2022-08-14T06:51:51;10.0;;;10.0;;
22673;SDS011;11504;43.334;21.918;2022-08-14T06:56:28;10.0;;;10.0;;
22673;SDS011;11504;43.334;21.918;2022-08-14T07:01:05;10.0;;;10.0;;
22673;SDS011;11504;43.334;21.918;2022-08-14T07:05:42;10.0;;;10.0;;
22673;SDS011;11504;43.334;21.918;2022-08-14T07:10:20;10.0;;;10.0;;
22673;SDS011;11504;43.334;21.918;2022-08-14T07:14:57;10.0;;;10.0;;
22673;SDS011;11504;43.334;21.918;2022-08-14T07:19:35;10.0;;;10.0;;
22673;SDS011;11504;43.334;21.918;2022-08-14T07:24:11;10.0;;;9.0;;
22673;SDS011;11504;43.334;21.918;2022-08-14T07:28:48;10.0;;;9.0;;
22673;SDS011;11504;43.334;21.918;2022-08-14T07:33:29;9.0;;;8.0;;
22673;SDS011;11504;43.334;21.918;2022-08-14T07:38:21;9.0;;;8.0;;
22673;SDS011;11504;43.334;21.918;2022-08-14T07:43:01;8.0;;;8.0;;
22673;SDS011;11504;43.334;21.918;2022-08-14T07:47:39;8.0;;;8.0;;
22673;SDS011;11504;43.334;21.918;2022-08-14T07:52:19;8.0;;;8.0;;
22673;SDS011;11504;43.334;21.918;2022-08-14T07:56:58;8.0;;;8.0;;
22673;SDS011;11504;43.334;21.918;2022-08-14T08:01:37;8.0;;;8.0;;
22673;SDS011;11504;43.334;21.918;2022-08-14T08:06:18;9.0;;;8.0;;
22673;SDS011;11504;43.334;21.918;2022-08-14T08:10:56;9.0;;;8.0;;
22673;SDS011;11504;43.334;21.918;2022-08-14T08:15:43;9.0;;;8.0;;
22673;SDS011;11504;43.334;21.918;2022-08-14T08:20:33;9.0;;;8.0;;
22673;SDS011;11504;43.334;21.918;2022-08-14T08:25:21;9.0;;;9.0;;
22673;SDS011;11504;43.334;21.918;2022-08-14T08:30:08;9.0;;;9.0;;
22673;SDS011;11504;43.334;21.918;2022-08-14T08:34:49;10.0;;;9.0;;
22673;SDS011;11504;43.334;21.918;2022-08-14T08:39:26;10.0;;;9.0;;
22673;SDS011;11504;43.334;21.918;2022-08-14T08:44:04;10.0;;;9.0;;
22673;SDS011;11504;43.334;21.918;2022-08-14T08:48:44;10.0;;;9.0;;
22673;SDS011;11504;43.334;21.918;2022-08-14T08:53:30;10.0;;;8.0;;
22673;SDS011;11504;43.334;21.918;2022-08-14T08:58:14;10.0;;;8.0;;
22673;SDS011;11504;43.334;21.918;2022-08-14T09:02:57;9.0;;;8.0;;
22673;SDS011;11504;43.334;21.918;2022-08-14T09:07:47;9.0;;;8.0;;
22673;SDS011;11504;43.334;21.918;2022-08-14T09:12:24;8.0;;;8.0;;
22673;SDS011;11504;43.334;21.918;2022-08-14T09:17:03;8.0;;;8.0;;
22673;SDS011;11504;43.334;21.918;2022-08-14T09:21:41;8.0;;;8.0;;
22673;SDS011;11504;43.334;21.918;2022-08-14T09:26:20;8.0;;;8.0;;
22673;SDS011;11504;43.334;21.918;2022-08-14T09:30:59;8.0;;;8.0;;
22673;SDS011;11504;43.334;21.918;2022-08-14T09:36:02;10.0;;;10.0;;
22673;SDS011;11504;43.334;21.918;2022-08-14T09:42:33;12.0;;;12.0;;
22673;SDS011;11504;43.334;21.918;2022-08-14T09:48:14;12.0;;;12.0;;
22673;SDS011;11504;43.334;21.918;2022-08-14T09:53:00;11.0;;;10.0;;
22673;SDS011;11504;43.334;21.918;2022-08-14T09:57:43;11.0;;;10.0;;
22673;SDS011;11504;43.334;21.918;2022-08-14T10:02:27;10.0;;;9.0;;
22673;SDS011;11504;43.334;21.918;2022-08-14T10:07:09;10.0;;;9.0;;
22673;SDS011;11504;43.334;21.918;2022-08-14T10:11:55;10.0;;;9.0;;
22673;SDS011;11504;43.334;21.918;2022-08-14T10:16:41;9.0;;;8.0;;
22673;SDS011;11504;43.334;21.918;2022-08-14T10:21:27;9.0;;;8.0;;
22673;SDS011;11504;43.334;21.918;2022-08-14T10:26:07;8.0;;;8.0;;
22673;SDS011;11504;43.334;21.918;2022-08-14T10:30:51;8.0;;;8.0;;
22673;SDS011;11504;43.334;21.918;2022-08-14T10:35:39;9.0;;;8.0;;
22673;SDS011;11504;43.334;21.918;2022-08-14T10:40:27;9.0;;;8.0;;
22673;SDS011;11504;43.334;21.918;2022-08-14T10:45:20;10.0;;;9.0;;
22673;SDS011;11504;43.334;21.918;2022-08-14T10:50:09;10.0;;;9.0;;
22673;SDS011;11504;43.334;21.918;2022-08-14T10:54:46;10.0;;;9.0;;
22673;SDS011;11504;43.334;21.918;2022-08-14T10:59:23;10.0;;;9.0;;
22673;SDS011;11504;43.334;21.918;2022-08-14T11:04:01;9.0;;;9.0;;
22673;SDS011;11504;43.334;21.918;2022-08-14T11:08:39;9.0;;;9.0;;
22673;SDS011;11504;43.334;21.918;2022-08-14T11:13:19;10.0;;;10.0;;
22673;SDS011;11504;43.334;21.918;2022-08-14T11:18:04;10.0;;;10.0;;
22673;SDS011;11504;43.334;21.918;2022-08-14T11:22:42;11.0;;;10.0;;
22673;SDS011;11504;43.334;21.918;2022-08-14T11:27:27;11.0;;;10.0;;
22673;SDS011;11504;43.334;21.918;2022-08-14T11:32:09;11.0;;;10.0;;
22673;SDS011;11504;43.334;21.918;2022-08-14T11:36:46;11.0;;;10.0;;
22673;SDS011;11504;43.334;21.918;2022-08-14T11:41:23;11.0;;;10.0;;
22673;SDS011;11504;43.334;21.918;2022-08-14T11:46:00;11.0;;;10.0;;
22673;SDS011;11504;43.334;21.918;2022-08-14T11:50:37;11.0;;;10.0;;
22673;SDS011;11504;43.334;21.918;2022-08-14T11:55:14;12.0;;;10.0;;
22673;SDS011;11504;43.334;21.918;2022-08-14T12:00:00;12.0;;;10.0;;
22673;SDS011;11504;43.334;21.918;2022-08-14T12:04:50;12.0;;;11.0;;
22673;SDS011;11504;43.334;21.918;2022-08-14T12:09:31;12.0;;;11.0;;
22673;SDS011;11504;43.334;21.918;2022-08-14T12:14:14;12.0;;;11.0;;
22673;SDS011;11504;43.334;21.918;2022-08-14T12:18:57;12.0;;;11.0;;
22673;SDS011;11504;43.334;21.918;2022-08-14T12:23:34;13.0;;;11.0;;
22673;SDS011;11504;43.334;21.918;2022-08-14T12:28:11;13.0;;;11.0;;
22673;SDS011;11504;43.334;21.918;2022-08-14T12:32:49;12.0;;;10.0;;
22673;SDS011;11504;43.334;21.918;2022-08-14T12:37:29;12.0;;;10.0;;
22673;SDS011;11504;43.334;21.918;2022-08-14T12:42:07;12.0;;;10.0;;
22673;SDS011;11504;43.334;21.918;2022-08-14T12:46:44;11.0;;;10.0;;
22673;SDS011;11504;43.334;21.918;2022-08-14T12:51:24;11.0;;;10.0;;
22673;SDS011;11504;43.334;21.918;2022-08-14T12:56:03;10.0;;;10.0;;
22673;SDS011;11504;43.334;21.918;2022-08-14T13:00:47;10.0;;;10.0;;
22673;SDS011;11504;43.334;21.918;2022-08-14T13:05:28;10.0;;;9.0;;
22673;SDS011;11504;43.334;21.918;2022-08-14T13:10:12;10.0;;;9.0;;
22673;SDS011;11504;43.334;21.918;2022-08-14T13:14:50;10.0;;;8.0;;
22673;SDS011;11504;43.334;21.918;2022-08-14T13:19:36;10.0;;;8.0;;
22673;SDS011;11504;43.334;21.918;2022-08-14T13:24:20;9.0;;;8.0;;
22673;SDS011;11504;43.334;21.918;2022-08-14T13:29:01;9.0;;;8.0;;
22673;SDS011;11504;43.334;21.918;2022-08-14T13:33:41;10.0;;;10.0;;
22673;SDS011;11504;43.334;21.918;2022-08-14T13:38:20;10.0;;;10.0;;
22673;SDS011;11504;43.334;21.918;2022-08-14T13:42:57;12.0;;;11.0;;
22673;SDS011;11504;43.334;21.918;2022-08-14T13:47:34;12.0;;;11.0;;
22673;SDS011;11504;43.334;21.918;2022-08-14T13:52:16;12.0;;;11.0;;
22673;SDS011;11504;43.334;21.918;2022-08-14T13:57:00;12.0;;;12.0;;
22673;SDS011;11504;43.334;21.918;2022-08-14T14:01:46;12.0;;;12.0;;
22673;SDS011;11504;43.334;21.918;2022-08-14T14:06:27;13.0;;;12.0;;
22673;SDS011;11504;43.334;21.918;2022-08-14T14:11:10;13.0;;;12.0;;
22673;SDS011;11504;43.334;21.918;2022-08-14T14:15:49;14.0;;;12.0;;
22673;SDS011;11504;43.334;21.918;2022-08-14T14:20:29;14.0;;;12.0;;
22673;SDS011;11504;43.334;21.918;2022-08-14T14:25:07;14.0;;;13.0;;
22673;SDS011;11504;43.334;21.918;2022-08-14T14:29:51;14.0;;;13.0;;
22673;SDS011;11504;43.334;21.918;2022-08-14T14:34:36;14.0;;;13.0;;
22673;SDS011;11504;43.334;21.918;2022-08-14T14:39:20;14.0;;;13.0;;
22673;SDS011;11504;43.334;21.918;2022-08-14T14:44:02;13.0;;;13.0;;
22673;SDS011;11504;43.334;21.918;2022-08-14T14:48:47;13.0;;;13.0;;
22673;SDS011;11504;43.334;21.918;2022-08-14T14:53:27;18.0;;;18.0;;
22673;SDS011;11504;43.334;21.918;2022-08-14T14:58:09;18.0;;;18.0;;
22673;SDS011;11504;43.334;21.918;2022-08-14T15:02:53;23.0;;;22.0;;
22673;SDS011;11504;43.334;21.918;2022-08-14T15:07:30;23.0;;;22.0;;
22673;SDS011;11504;43.334;21.918;2022-08-14T15:12:08;23.0;;;22.0;;
22673;SDS011;11504;43.334;21.918;2022-08-14T15:16:46;20.0;;;18.0;;
22673;SDS011;11504;43.334;21.918;2022-08-14T15:21:25;20.0;;;18.0;;
22673;SDS011;11504;43.334;21.918;2022-08-14T15:26:03;16.0;;;15.0;;
22673;SDS011;11504;43.334;21.918;2022-08-14T15:30:45;16.0;;;15.0;;
22673;SDS011;11504;43.334;21.918;2022-08-14T15:35:23;14.0;;;14.0;;
22673;SDS011;11504;43.334;21.918;2022-08-14T15:40:00;14.0;;;14.0;;
22673;SDS011;11504;43.334;21.918;2022-08-14T15:44:41;13.0;;;12.0;;
22673;SDS011;11504;43.334;21.918;2022-08-14T15:49:26;13.0;;;12.0;;
22673;SDS011;11504;43.334;21.918;2022-08-14T15:54:04;20.0;;;20.0;;
22673;SDS011;11504;43.334;21.918;2022-08-14T15:58:41;20.0;;;20.0;;
22673;SDS011;11504;43.334;21.918;2022-08-14T16:03:20;28.0;;;27.0;;
22673;SDS011;11504;43.334;21.918;2022-08-14T16:07:59;28.0;;;27.0;;
22673;SDS011;11504;43.334;21.918;2022-08-14T16:12:46;28.0;;;26.0;;
22673;SDS011;11504;43.334;21.918;2022-08-14T16:17:26;28.0;;;26.0;;
22673;SDS011;11504;43.334;21.918;2022-08-14T16:22:08;28.0;;;26.0;;
22673;SDS011;11504;43.334;21.918;2022-08-14T16:26:46;27.0;;;25.0;;
22673;SDS011;11504;43.334;21.918;2022-08-14T16:31:24;27.0;;;25.0;;
22673;SDS011;11504;43.334;21.918;2022-08-14T16:36:03;24.0;;;22.0;;
22673;SDS011;11504;43.334;21.918;2022-08-14T16:40:52;24.0;;;22.0;;
22673;SDS011;11504;43.334;21.918;2022-08-14T16:45:37;22.0;;;20.0;;
22673;SDS011;11504;43.334;21.918;2022-08-14T16:50:15;22.0;;;20.0;;
22673;SDS011;11504;43.334;21.918;2022-08-14T16:54:52;25.0;;;23.0;;
22673;SDS011;11504;43.334;21.918;2022-08-14T16:59:32;25.0;;;23.0;;
22673;SDS011;11504;43.334;21.918;2022-08-14T17:04:13;28.0;;;26.0;;
22673;SDS011;11504;43.334;21.918;2022-08-14T17:08:52;28.0;;;26.0;;
22673;SDS011;11504;43.334;21.918;2022-08-14T17:13:31;26.0;;;24.0;;
22673;SDS011;11504;43.334;21.918;2022-08-14T17:18:08;26.0;;;24.0;;
22673;SDS011;11504;43.334;21.918;2022-08-14T17:22:49;23.0;;;22.0;;
22673;SDS011;11504;43.334;21.918;2022-08-14T17:27:34;23.0;;;22.0;;
22673;SDS011;11504;43.334;21.918;2022-08-14T17:32:13;23.0;;;22.0;;
22673;SDS011;11504;43.334;21.918;2022-08-14T17:36:52;24.0;;;22.0;;
22673;SDS011;11504;43.334;21.918;2022-08-14T17:41:31;24.0;;;22.0;;
22673;SDS011;11504;43.334;21.918;2022-08-14T17:46:33;25.0;;;23.0;;
22673;SDS011;11504;43.334;21.918;2022-08-14T17:51:20;25.0;;;23.0;;
22673;SDS011;11504;43.334;21.918;2022-08-14T17:55:57;25.0;;;24.0;;
22673;SDS011;11504;43.334;21.918;2022-08-14T18:00:37;25.0;;;24.0;;
22673;SDS011;11504;43.334;21.918;2022-08-14T18:05:19;25.0;;;24.0;;
22673;SDS011;11504;43.334;21.918;2022-08-14T18:09:59;25.0;;;24.0;;
22673;SDS011;11504;43.334;21.918;2022-08-14T18:14:46;24.0;;;24.0;;
22673;SDS011;11504;43.334;21.918;2022-08-14T18:19:28;24.0;;;24.0;;
22673;SDS011;11504;43.334;21.918;2022-08-14T18:24:14;24.0;;;23.0;;
22673;SDS011;11504;43.334;21.918;2022-08-14T18:28:53;24.0;;;23.0;;
22673;SDS011;11504;43.334;21.918;2022-08-14T18:33:52;23.0;;;22.0;;
22673;SDS011;11504;43.334;21.918;2022-08-14T18:39:22;23.0;;;22.0;;
22673;SDS011;11504;43.334;21.918;2022-08-14T18:44:11;22.0;;;21.0;;
22673;SDS011;11504;43.334;21.918;2022-08-14T18:49:12;22.0;;;21.0;;
22673;SDS011;11504;43.334;21.918;2022-08-14T18:53:58;23.0;;;22.0;;
22673;SDS011;11504;43.334;21.918;2022-08-14T18:58:47;23.0;;;22.0;;
22673;SDS011;11504;43.334;21.918;2022-08-14T19:03:44;24.0;;;23.0;;
22673;SDS011;11504;43.334;21.918;2022-08-14T19:08:22;24.0;;;23.0;;
22673;SDS011;11504;43.334;21.918;2022-08-14T19:13:03;26.0;;;24.0;;
22673;SDS011;11504;43.334;21.918;2022-08-14T19:17:43;26.0;;;24.0;;
22673;SDS011;11504;43.334;21.918;2022-08-14T19:22:28;26.0;;;24.0;;
22673;SDS011;11504;43.334;21.918;2022-08-14T19:27:17;27.0;;;25.0;;
22673;SDS011;11504;43.334;21.918;2022-08-14T19:32:03;27.0;;;25.0;;
22673;SDS011;11504;43.334;21.918;2022-08-14T19:37:43;26.0;;;24.0;;
22673;SDS011;11504;43.334;21.918;2022-08-14T19:42:36;26.0;;;24.0;;
22673;SDS011;11504;43.334;21.918;2022-08-14T19:47:15;24.0;;;23.0;;
22673;SDS011;11504;43.334;21.918;2022-08-14T19:51:53;24.0;;;23.0;;
22673;SDS011;11504;43.334;21.918;2022-08-14T19:56:33;24.0;;;23.0;;
22673;SDS011;11504;43.334;21.918;2022-08-14T20:01:28;24.0;;;23.0;;
22673;SDS011;11504;43.334;21.918;2022-08-14T20:06:13;24.0;;;23.0;;
22673;SDS011;11504;43.334;21.918;2022-08-14T20:10:50;24.0;;;23.0;;
22673;SDS011;11504;43.334;21.918;2022-08-14T20:15:32;24.0;;;22.0;;
22673;SDS011;11504;43.334;21.918;2022-08-14T20:20:18;24.0;;;22.0;;
22673;SDS011;11504;43.334;21.918;2022-08-14T20:25:10;24.0;;;22.0;;
22673;SDS011;11504;43.334;21.918;2022-08-14T20:30:07;24.0;;;22.0;;
22673;SDS011;11504;43.334;21.918;2022-08-14T20:34:57;26.0;;;24.0;;
22673;SDS011;11504;43.334;21.918;2022-08-14T20:39:41;26.0;;;24.0;;
22673;SDS011;11504;43.334;21.918;2022-08-14T20:44:22;28.0;;;27.0;;
22673;SDS011;11504;43.334;21.918;2022-08-14T20:49:02;28.0;;;27.0;;
22673;SDS011;11504;43.334;21.918;2022-08-14T20:53:55;28.0;;;26.0;;
22673;SDS011;11504;43.334;21.918;2022-08-14T20:58:40;28.0;;;26.0;;
22673;SDS011;11504;43.334;21.918;2022-08-14T21:03:27;27.0;;;25.0;;
22673;SDS011;11504;43.334;21.918;2022-08-14T21:08:30;27.0;;;25.0;;
22673;SDS011;11504;43.334;21.918;2022-08-14T21:13:09;26.0;;;24.0;;
22673;SDS011;11504;43.334;21.918;2022-08-14T21:17:48;26.0;;;24.0;;
22673;SDS011;11504;43.334;21.918;2022-08-14T21:22:25;26.0;;;24.0;;
22673;SDS011;11504;43.334;21.918;2022-08-14T21:27:06;25.0;;;24.0;;
22673;SDS011;11504;43.334;21.918;2022-08-14T21:31:50;25.0;;;24.0;;
22673;SDS011;11504;43.334;21.918;2022-08-14T21:36:27;24.0;;;22.0;;
22673;SDS011;11504;43.334;21.918;2022-08-14T21:41:12;24.0;;;22.0;;
22673;SDS011;11504;43.334;21.918;2022-08-14T21:45:55;22.0;;;21.0;;
22673;SDS011;11504;43.334;21.918;2022-08-14T21:50:32;22.0;;;21.0;;
22673;SDS011;11504;43.334;21.918;2022-08-14T21:55:14;22.0;;;21.0;;
22673;SDS011;11504;43.334;21.918;2022-08-14T21:59:57;22.0;;;21.0;;
22673;SDS011;11504;43.334;21.918;2022-08-14T22:04:39;22.0;;;21.0;;
22673;SDS011;11504;43.334;21.918;2022-08-14T22:09:18;22.0;;;21.0;;
22673;SDS011;11504;43.334;21.918;2022-08-14T22:14:00;26.0;;;25.0;;
22673;SDS011;11504;43.334;21.918;2022-08-14T22:18:41;26.0;;;25.0;;
22673;SDS011;11504;43.334;21.918;2022-08-14T22:23:18;31.0;;;29.0;;
22673;SDS011;11504;43.334;21.918;2022-08-14T22:27:57;31.0;;;29.0;;
22673;SDS011;11504;43.334;21.918;2022-08-14T22:32:34;31.0;;;29.0;;
22673;SDS011;11504;43.334;21.918;2022-08-14T22:37:11;26.0;;;25.0;;
22673;SDS011;11504;43.334;21.918;2022-08-14T22:41:49;26.0;;;25.0;;
22673;SDS011;11504;43.334;21.918;2022-08-14T22:46:29;22.0;;;21.0;;
22673;SDS011;11504;43.334;21.918;2022-08-14T22:51:06;22.0;;;21.0;;
22673;SDS011;11504;43.334;21.918;2022-08-14T22:55:44;23.0;;;22.0;;
22673;SDS011;11504;43.334;21.918;2022-08-14T23:00:24;23.0;;;22.0;;
22673;SDS011;11504;43.334;21.918;2022-08-14T23:05:01;24.0;;;22.0;;
22673;SDS011;11504;43.334;21.918;2022-08-14T23:09:43;24.0;;;22.0;;
22673;SDS011;11504;43.334;21.918;2022-08-14T23:14:23;24.0;;;22.0;;
22673;SDS011;11504;43.334;21.918;2022-08-14T23:19:02;24.0;;;22.0;;
22673;SDS011;11504;43.334;21.918;2022-08-14T23:23:41;24.0;;;23.0;;
22673;SDS011;11504;43.334;21.918;2022-08-14T23:28:20;24.0;;;23.0;;
22673;SDS011;11504;43.334;21.918;2022-08-14T23:32:57;24.0;;;23.0;;
22673;SDS011;11504;43.334;21.918;2022-08-14T23:37:33;24.0;;;23.0;;
22673;SDS011;11504;43.334;21.918;2022-08-14T23:42:10;24.0;;;23.0;;
22673;SDS011;11504;43.334;21.918;2022-08-14T23:46:46;24.0;;;23.0;;
22673;SDS011;11504;43.334;21.918;2022-08-14T23:51:24;24.0;;;23.0;;
22673;SDS011;11504;43.334;21.918;2022-08-14T23:56:05;24.0;;;22.0;;
